Time;durP1;ratioP1;P1;durP2;ratioP2;P2;SDS_P1;SDS_P2;PMS_P1;PMS_P2;Temp;Humidity;BMP_temperature;BMP_pressure;BME280_temperature;BME280_humidity;BME280_pressure;Samples;Min_cycle;Max_cycle;Signal;HPM_P1;HPM_P2
2023/05/14 00:02:11;;;;;;;16.42;11.18;;;;;;;14.20;91.84;101873.53;5052579;28;20037;-71
2023/05/14 00:04:37;;;;;;;13.63;11.05;;;;;;;14.07;91.41;101858.97;5053067;28;20078;-72
2023/05/14 00:07:02;;;;;;;13.30;10.65;;;;;;;14.29;92.50;101876.81;5053251;28;20017;-72
2023/05/14 00:09:29;;;;;;;20.05;10.98;;;;;;;14.25;91.84;101864.63;5052473;28;20039;-71
2023/05/14 00:11:54;;;;;;;14.68;11.05;;;;;;;14.33;93.45;101866.25;5052562;28;20092;-72
2023/05/14 00:14:19;;;;;;;18.95;11.82;;;;;;;14.32;93.66;101861.88;5053126;28;20052;-72
2023/05/14 00:16:45;;;;;;;13.70;11.50;;;;;;;14.20;92.21;101842.91;5051910;28;20025;-72
2023/05/14 00:19:10;;;;;;;14.15;11.43;;;;;;;14.22;91.60;101853.34;5053221;28;20423;-72
2023/05/14 00:21:35;;;;;;;13.48;11.40;;;;;;;14.26;93.08;101855.03;5053071;28;20461;-72
2023/05/14 00:24:01;;;;;;;15.65;11.63;;;;;;;14.26;92.53;101855.91;5052206;28;20039;-72
2023/05/14 00:26:26;;;;;;;15.73;11.57;;;;;;;14.26;93.37;101861.13;5052950;28;20473;-72
2023/05/14 00:28:51;;;;;;;13.73;11.02;;;;;;;14.23;92.34;101861.22;5052545;28;20021;-72
2023/05/14 00:31:17;;;;;;;17.42;11.93;;;;;;;14.10;91.71;101865.00;5052197;28;20041;-72
2023/05/14 00:33:42;;;;;;;14.80;12.32;;;;;;;14.00;93.58;101861.72;5052316;28;20531;-72
2023/05/14 00:36:07;;;;;;;14.35;12.25;;;;;;;13.95;93.93;101860.06;5053056;28;20041;-72
2023/05/14 00:38:32;;;;;;;14.35;12.27;;;;;;;13.85;95.47;101853.31;5051684;28;20499;-72
2023/05/14 00:40:58;;;;;;;13.55;12.13;;;;;;;13.75;95.86;101844.78;5052535;28;20056;-72
2023/05/14 00:43:24;;;;;;;17.42;13.93;;;;;;;13.66;96.05;101848.44;5052566;28;20041;-72
2023/05/14 00:45:54;;;;;;;14.32;12.85;;;;;;;13.61;96.99;101850.31;5051707;28;20108;-72
2023/05/14 00:48:21;;;;;;;15.40;12.98;;;;;;;13.51;97.81;101847.00;5052671;28;20114;-72
2023/05/14 00:50:48;;;;;;;14.85;13.35;;;;;;;13.40;97.52;101840.22;5051931;28;20065;-72
2023/05/14 00:53:13;;;;;;;19.23;14.15;;;;;;;13.42;99.21;101843.69;5051294;28;20107;-72
2023/05/14 00:55:40;;;;;;;15.15;13.32;;;;;;;13.33;99.55;101840.34;5049191;28;20113;-72
2023/05/14 00:58:11;;;;;;;15.55;13.02;;;;;;;13.32;100.00;101838.63;5050426;28;20057;-72
2023/05/14 01:00:37;;;;;;;19.42;13.30;;;;;;;13.26;100.00;101837.88;5051895;28;20512;-72
2023/05/14 01:03:03;;;;;;;22.40;14.07;;;;;;;13.16;100.00;101833.66;5051422;28;20041;-72
2023/05/14 01:05:50;;;;;;;16.42;14.73;;;;;;;13.16;100.00;101842.38;5049674;28;20039;-72
2023/05/14 01:08:29;;;;;;;17.90;13.82;;;;;;;13.10;100.00;101838.13;5049743;28;20136;-72
2023/05/14 01:11:17;;;;;;;17.27;14.15;;;;;;;13.02;100.00;101834.78;5050501;28;20025;-72
2023/05/14 01:14:06;;;;;;;16.27;14.07;;;;;;;13.00;100.00;101835.69;5050204;28;20024;-72
2023/05/14 01:16:32;;;;;;;17.15;14.15;;;;;;;12.97;100.00;101835.75;5042533;28;20404;-72
2023/05/14 01:18:59;;;;;;;19.17;14.88;;;;;;;12.98;100.00;101838.34;5051829;28;20025;-72
2023/05/14 01:21:41;;;;;;;18.58;15.18;;;;;;;12.96;100.00;101831.41;5051455;28;20049;-72
2023/05/14 01:24:07;;;;;;;17.30;15.52;;;;;;;12.89;100.00;101839.38;5050183;28;20461;-72
2023/05/14 01:26:33;;;;;;;18.77;15.20;;;;;;;12.86;100.00;101839.41;5049075;28;20120;-72
2023/05/14 01:29:04;;;;;;;19.55;15.80;;;;;;;12.87;100.00;101833.28;5050779;28;20040;-72
2023/05/14 01:31:31;;;;;;;22.65;15.27;;;;;;;12.82;100.00;101826.44;5050442;28;20056;-72
2023/05/14 01:33:57;;;;;;;20.27;15.70;;;;;;;12.81;100.00;101817.69;5049075;28;20036;-72
2023/05/14 01:36:23;;;;;;;18.33;15.80;;;;;;;12.83;100.00;101828.16;5051104;28;20107;-72
2023/05/14 01:38:50;;;;;;;18.65;15.90;;;;;;;12.74;100.00;101823.91;5049532;28;20124;-72
2023/05/14 01:41:16;;;;;;;19.88;15.10;;;;;;;12.74;100.00;101817.81;5049407;28;20028;-72
2023/05/14 01:43:43;;;;;;;19.08;16.73;;;;;;;12.61;100.00;101817.16;5051079;28;20068;-72
2023/05/14 01:46:09;;;;;;;18.60;15.80;;;;;;;12.61;100.00;101814.53;5050264;28;20144;-71
2023/05/14 01:48:34;;;;;;;19.15;16.10;;;;;;;12.56;100.00;101821.63;5051546;28;20124;-71
2023/05/14 01:50:59;;;;;;;21.42;16.95;;;;;;;12.55;100.00;101823.34;5054395;28;20029;-71
2023/05/14 01:53:25;;;;;;;20.70;17.48;;;;;;;12.53;100.00;101821.66;5054127;28;20465;-71
2023/05/14 01:55:50;;;;;;;22.38;16.95;;;;;;;12.43;100.00;101825.31;5055877;28;20025;-71
2023/05/14 01:58:15;;;;;;;19.90;16.60;;;;;;;12.43;100.00;101820.94;5055255;28;20494;-72
2023/05/14 02:00:41;;;;;;;20.98;17.23;;;;;;;12.41;100.00;101817.50;5053683;28;20021;-72
2023/05/14 02:03:06;;;;;;;21.67;17.13;;;;;;;12.38;100.00;101822.75;5053774;28;20029;-71
2023/05/14 02:05:31;;;;;;;23.27;18.42;;;;;;;12.37;100.00;101819.28;5054180;28;20079;-71
2023/05/14 02:07:56;;;;;;;25.13;18.13;;;;;;;12.36;100.00;101824.53;5053309;28;20025;-72
2023/05/14 02:10:22;;;;;;;21.55;18.75;;;;;;;12.28;100.00;101811.56;5054720;28;20017;-71
2023/05/14 02:12:47;;;;;;;21.77;18.70;;;;;;;12.18;100.00;101810.00;5053492;28;20017;-72
2023/05/14 02:15:12;;;;;;;23.27;17.70;;;;;;;12.16;100.00;101803.91;5055291;28;20481;-71
2023/05/14 02:17:37;;;;;;;21.35;18.50;;;;;;;12.13;100.00;101819.63;5052671;28;20120;-73
2023/05/14 02:20:03;;;;;;;21.08;18.60;;;;;;;12.17;100.00;101810.88;5053109;28;20117;-72
2023/05/14 02:22:29;;;;;;;23.23;19.27;;;;;;;12.08;100.00;101790.09;5051615;28;20032;-72
2023/05/14 02:24:54;;;;;;;23.77;18.67;;;;;;;12.24;100.00;101817.75;5051433;28;20020;-72
2023/05/14 02:27:20;;;;;;;21.45;19.13;;;;;;;12.24;100.00;101802.06;5053255;28;20418;-71
2023/05/14 02:29:46;;;;;;;23.77;20.13;;;;;;;12.30;100.00;101812.44;5053326;28;20044;-72
2023/05/14 02:32:11;;;;;;;22.83;18.95;;;;;;;12.39;100.00;101812.28;5053230;28;20491;-72
2023/05/14 02:34:37;;;;;;;21.33;18.40;;;;;;;12.39;100.00;101811.41;5051720;28;20396;-72
2023/05/14 02:37:02;;;;;;;20.52;18.27;;;;;;;12.45;100.00;101819.16;5053487;28;20511;-72
2023/05/14 02:39:28;;;;;;;22.05;19.38;;;;;;;12.39;100.00;101801.84;5053218;28;20037;-71
2023/05/14 02:41:53;;;;;;;22.30;18.48;;;;;;;12.48;100.00;101805.19;5051280;28;20597;-72
2023/05/14 02:44:18;;;;;;;26.15;20.08;;;;;;;12.41;100.00;101789.56;5052535;28;20025;-72
2023/05/14 02:46:44;;;;;;;24.08;19.02;;;;;;;12.49;100.00;101809.50;5053681;28;20029;-72
2023/05/14 02:49:09;;;;;;;26.25;20.13;;;;;;;12.44;100.00;101808.72;5053216;28;20025;-72
2023/05/14 02:51:35;;;;;;;22.58;19.67;;;;;;;12.46;100.00;101807.84;5051805;28;20025;-72
2023/05/14 02:54:00;;;;;;;21.73;19.23;;;;;;;12.39;100.00;101804.44;5051093;28;20139;-72
2023/05/14 02:56:25;;;;;;;25.15;19.63;;;;;;;12.37;100.00;101797.50;5054777;28;20059;-72
2023/05/14 02:58:51;;;;;;;22.17;19.10;;;;;;;12.37;100.00;101798.38;5051383;28;20079;-72
2023/05/14 03:01:17;;;;;;;26.58;19.75;;;;;;;12.31;100.00;101808.06;5053068;28;20016;-72
2023/05/14 03:03:43;;;;;;;25.42;19.92;;;;;;;12.32;100.00;101818.47;5054330;28;20036;-72
2023/05/14 03:06:08;;;;;;;24.63;19.70;;;;;;;12.28;100.00;101808.09;5053710;28;20013;-72
2023/05/14 03:08:34;;;;;;;22.63;19.88;;;;;;;12.26;100.00;101804.63;5054422;28;20029;-72
2023/05/14 03:10:59;;;;;;;23.10;19.90;;;;;;;12.17;100.00;101811.75;5054064;28;20468;-72
2023/05/14 03:13:24;;;;;;;23.13;19.70;;;;;;;12.10;100.00;101804.03;5051834;28;20047;-72
2023/05/14 03:15:53;;;;;;;28.45;20.17;;;;;;;11.99;100.00;101785.84;5053589;28;20033;-72
2023/05/14 03:18:18;;;;;;;25.17;20.75;;;;;;;11.92;100.00;101799.91;5051774;28;20036;-72
2023/05/14 03:20:44;;;;;;;28.80;20.58;;;;;;;11.82;100.00;101783.47;5052292;28;20029;-72
2023/05/14 03:23:09;;;;;;;24.08;21.08;;;;;;;11.87;100.00;101801.69;5051977;28;20036;-72
2023/05/14 03:25:34;;;;;;;26.42;21.35;;;;;;;11.79;100.00;101793.09;5051816;28;20059;-71
2023/05/14 03:28:00;;;;;;;27.92;21.17;;;;;;;11.76;100.00;101791.38;5051892;28;20086;-72
2023/05/14 03:30:25;;;;;;;23.98;21.45;;;;;;;11.69;100.00;101784.50;5053121;28;20028;-72
2023/05/14 03:32:50;;;;;;;26.10;21.45;;;;;;;11.53;100.00;101768.16;5052165;28;20029;-71
2023/05/14 03:35:16;;;;;;;27.90;22.10;;;;;;;11.59;100.00;101780.28;5052291;28;20111;-71
2023/05/14 03:37:41;;;;;;;24.73;22.10;;;;;;;11.45;100.00;101762.19;5052332;28;20049;-72
2023/05/14 03:40:07;;;;;;;27.55;22.25;;;;;;;11.44;100.00;101782.22;5052399;28;20029;-71
2023/05/14 03:42:32;;;;;;;28.65;22.90;;;;;;;11.41;100.00;101782.25;5050957;28;20037;-71
2023/05/14 03:44:57;;;;;;;27.30;22.15;;;;;;;11.43;100.00;101790.06;5052487;28;20039;-71
2023/05/14 03:47:23;;;;;;;32.45;22.95;;;;;;;11.29;100.00;101786.75;5050916;28;20035;-71
2023/05/14 03:49:48;;;;;;;30.27;23.10;;;;;;;11.32;100.00;101795.41;5052175;28;20461;-72
2023/05/14 03:52:13;;;;;;;30.60;22.23;;;;;;;11.24;100.00;101784.16;5050598;28;20095;-72
2023/05/14 03:54:40;;;;;;;34.00;23.75;;;;;;;10.97;100.00;101741.84;5051448;28;20029;-72
2023/05/14 03:57:05;;;;;;;31.40;23.58;;;;;;;11.20;100.00;101793.78;5052814;28;20025;-72
2023/05/14 03:59:30;;;;;;;33.03;23.48;;;;;;;11.20;100.00;101798.16;5051946;28;20131;-72
2023/05/14 04:01:56;;;;;;;28.58;24.40;;;;;;;11.16;100.00;101789.47;5050656;28;20492;-71
2023/05/14 04:04:21;;;;;;;28.65;24.17;;;;;;;11.15;100.00;101786.88;5051102;28;20108;-72
2023/05/14 04:06:46;;;;;;;30.27;23.98;;;;;;;11.13;100.00;101786.91;5051771;28;20119;-72
2023/05/14 04:09:12;;;;;;;27.40;23.58;;;;;;;11.08;100.00;101780.84;5052178;28;20032;-71
2023/05/14 04:11:37;;;;;;;28.92;24.92;;;;;;;11.03;100.00;101774.84;5050750;28;20040;-72
2023/05/14 04:14:02;;;;;;;29.15;24.75;;;;;;;11.06;100.00;101779.16;5047812;28;20021;-72
2023/05/14 04:16:28;;;;;;;30.95;23.92;;;;;;;11.08;100.00;101782.59;5051183;28;20404;-72
2023/05/14 04:18:53;;;;;;;31.15;24.83;;;;;;;11.02;100.00;101778.34;5052509;28;20112;-72
2023/05/14 04:21:18;;;;;;;32.60;25.02;;;;;;;10.99;100.00;101781.84;5053146;28;20040;-71
2023/05/14 04:23:44;;;;;;;34.00;25.05;;;;;;;10.80;100.00;101754.19;5051769;28;20067;-71
2023/05/14 04:26:09;;;;;;;31.55;24.65;;;;;;;10.98;100.00;101774.00;5053025;28;20551;-71
2023/05/14 04:28:34;;;;;;;30.85;25.08;;;;;;;11.06;100.00;101780.03;5052852;28;20033;-72
2023/05/14 04:31:00;;;;;;;33.63;25.50;;;;;;;11.08;100.00;101780.84;5052039;28;20025;-71
2023/05/14 04:33:25;;;;;;;31.85;25.05;;;;;;;11.06;100.00;101782.63;5052858;28;20476;-72
2023/05/14 04:35:51;;;;;;;34.10;25.95;;;;;;;11.09;100.00;101780.00;5052545;28;20439;-72
2023/05/14 04:38:16;;;;;;;30.55;24.55;;;;;;;11.06;100.00;101777.41;5052025;28;20072;-72
2023/05/14 04:40:41;;;;;;;30.92;24.15;;;;;;;11.12;100.00;101779.09;5052020;28;20028;-72
2023/05/14 04:43:07;;;;;;;30.92;24.92;;;;;;;11.09;100.00;101772.16;5053116;28;20025;-71
2023/05/14 04:45:32;;;;;;;33.40;24.27;;;;;;;11.17;100.00;101782.50;5052029;28;20032;-71
2023/05/14 04:48:01;;;;;;;34.00;25.02;;;;;;;11.14;100.00;101779.94;5052101;28;20041;-72
2023/05/14 04:50:29;;;;;;;30.80;25.17;;;;;;;11.17;100.00;101785.13;5051675;28;20032;-72
2023/05/14 04:52:54;;;;;;;31.95;25.30;;;;;;;11.22;100.00;101783.34;5051952;28;20425;-71
2023/05/14 04:55:20;;;;;;;32.33;24.52;;;;;;;11.24;100.00;101789.38;5052525;28;20062;-71
2023/05/14 04:57:46;;;;;;;30.88;24.20;;;;;;;11.33;100.00;101788.44;5051421;28;20027;-71
2023/05/14 05:00:12;;;;;;;30.77;24.15;;;;;;;11.42;100.00;101794.41;5052268;28;20357;-72
2023/05/14 05:02:37;;;;;;;32.47;23.38;;;;;;;11.46;100.00;101780.44;5052402;28;20024;-71
2023/05/14 05:05:03;;;;;;;30.75;23.83;;;;;;;11.54;100.00;101787.31;5051826;28;20556;-72
2023/05/14 05:07:28;;;;;;;31.05;23.70;;;;;;;11.55;100.00;101789.91;5052354;28;20459;-72
2023/05/14 05:09:53;;;;;;;32.95;23.15;;;;;;;11.64;100.00;101794.13;5052292;28;20103;-72
2023/05/14 05:12:18;;;;;;;30.55;23.02;;;;;;;11.68;100.00;101799.31;5051384;28;20020;-72
2023/05/14 05:14:44;;;;;;;33.67;23.63;;;;;;;11.62;100.00;101788.94;5051646;28;20024;-72
2023/05/14 05:17:09;;;;;;;34.35;23.92;;;;;;;11.69;100.00;101792.34;5052285;28;20033;-72
2023/05/14 05:19:34;;;;;;;30.83;23.92;;;;;;;11.70;100.00;101788.84;5051700;28;20349;-72
2023/05/14 05:22:00;;;;;;;32.65;23.25;;;;;;;11.71;100.00;101788.84;5053120;28;20036;-72
2023/05/14 05:24:26;;;;;;;30.27;23.33;;;;;;;11.81;100.00;101805.25;5054595;28;20028;-72
2023/05/14 05:26:52;;;;;;;31.17;21.52;;;;;;;11.89;100.00;101807.78;5055115;28;20017;-72
2023/05/14 05:29:18;;;;;;;27.90;21.98;;;;;;;11.92;100.00;101795.53;5056444;28;20029;-72
2023/05/14 05:31:46;;;;;;;28.52;22.02;;;;;;;11.95;100.00;101799.88;5055514;28;20043;-72
2023/05/14 05:34:11;;;;;;;30.48;22.33;;;;;;;11.95;100.00;101774.59;5055501;28;20021;-71
2023/05/14 05:36:36;;;;;;;29.77;21.60;;;;;;;12.08;100.00;101790.09;5056058;28;20021;-72
2023/05/14 05:39:02;;;;;;;31.67;21.58;;;;;;;12.02;100.00;101800.63;5055775;28;20071;-71
2023/05/14 05:41:28;;;;;;;30.25;22.15;;;;;;;12.02;100.00;101795.41;5055432;28;20484;-71
2023/05/14 05:43:54;;;;;;;29.13;21.33;;;;;;;12.11;100.00;101798.75;5055804;28;20074;-72
2023/05/14 05:46:20;;;;;;;26.92;21.08;;;;;;;12.23;100.00;101796.84;5055801;28;20029;-71
2023/05/14 05:48:45;;;;;;;29.88;21.23;;;;;;;12.26;100.00;101788.94;5054423;28;20423;-72
2023/05/14 05:51:10;;;;;;;28.38;20.65;;;;;;;12.38;100.00;101801.84;5055578;28;20021;-72
2023/05/14 05:53:36;;;;;;;28.52;21.08;;;;;;;12.39;100.00;101795.72;5055218;28;20029;-71
2023/05/14 05:56:01;;;;;;;27.13;20.85;;;;;;;12.37;100.00;101790.53;5054779;28;20017;-71
2023/05/14 05:58:26;;;;;;;26.52;20.33;;;;;;;12.40;100.00;101795.69;5053181;28;20037;-72
2023/05/14 06:00:52;;;;;;;25.05;19.83;;;;;;;12.46;100.00;101804.31;5050260;28;20025;-72
2023/05/14 06:03:17;;;;;;;30.60;20.80;;;;;;;12.50;100.00;101812.13;5055591;28;20052;-71
2023/05/14 06:05:42;;;;;;;24.52;19.55;;;;;;;12.51;100.00;101810.34;5053365;28;20515;-72
2023/05/14 06:08:08;;;;;;;26.30;20.67;;;;;;;12.58;100.00;101811.97;5054680;28;20025;-72
2023/05/14 06:10:35;;;;;;;29.27;20.60;;;;;;;12.59;100.00;101811.13;5055557;28;20029;-72
2023/05/14 06:13:00;;;;;;;30.33;20.75;;;;;;;12.53;100.00;101816.44;5055252;28;20097;-71
2023/05/14 06:15:25;;;;;;;26.58;20.50;;;;;;;12.52;100.00;101823.41;5054812;28;20107;-71
2023/05/14 06:17:51;;;;;;;28.80;21.35;;;;;;;12.44;100.00;101819.19;5055076;28;20043;-71
2023/05/14 06:20:16;;;;;;;29.77;20.85;;;;;;;12.43;100.00;101813.09;5054111;28;20032;-72
2023/05/14 06:22:41;;;;;;;29.42;20.88;;;;;;;12.55;100.00;101823.34;5052843;28;20049;-72
2023/05/14 06:25:07;;;;;;;28.77;20.27;;;;;;;12.61;100.00;101825.00;5054296;28;20461;-71
2023/05/14 06:27:32;;;;;;;26.52;20.55;;;;;;;12.68;100.00;101831.88;5055177;28;20434;-72
2023/05/14 06:29:57;;;;;;;27.63;20.33;;;;;;;12.64;100.00;101820.59;5053605;28;20029;-71
2023/05/14 06:32:23;;;;;;;27.02;19.85;;;;;;;12.72;100.00;101823.09;5053356;28;20028;-72
2023/05/14 06:34:53;;;;;;;26.48;20.13;;;;;;;12.83;100.00;101828.16;5052356;28;20078;-72
2023/05/14 06:37:21;;;;;;;26.85;19.55;;;;;;;12.91;100.00;101822.78;5053966;28;20139;-72
2023/05/14 06:39:49;;;;;;;26.23;19.90;;;;;;;12.96;100.00;101819.19;5053841;28;20380;-71
2023/05/14 06:42:17;;;;;;;27.92;19.48;;;;;;;13.02;100.00;101824.31;5043837;28;20030;-72
2023/05/14 06:44:43;;;;;;;27.77;20.13;;;;;;;13.16;100.00;101831.06;5053306;28;20037;-72
2023/05/14 06:47:08;;;;;;;24.77;18.48;;;;;;;13.25;100.00;101825.69;5053569;28;20025;-71
2023/05/14 06:49:34;;;;;;;26.88;19.40;;;;;;;13.37;100.00;101819.31;5052015;28;20033;-71
2023/05/14 06:52:00;;;;;;;23.75;18.67;;;;;;;13.42;100.00;101814.88;5053257;28;20017;-71
2023/05/14 06:54:25;;;;;;;23.08;19.02;;;;;;;13.53;100.00;101821.59;5052886;28;20033;-71
2023/05/14 06:56:51;;;;;;;27.65;19.13;;;;;;;13.61;100.00;101816.25;5053269;28;20365;-72
2023/05/14 06:59:16;;;;;;;24.88;19.42;;;;;;;13.65;100.00;101815.28;5053897;28;20456;-71
2023/05/14 07:01:41;;;;;;;27.33;18.92;;;;;;;13.79;100.00;101814.97;5052274;28;20058;-72
2023/05/14 07:04:07;;;;;;;22.80;18.98;;;;;;;13.92;100.00;101812.94;5043437;28;20025;-72
2023/05/14 07:06:32;;;;;;;26.90;18.90;;;;;;;14.26;100.00;101815.69;5052541;28;20028;-72
2023/05/14 07:08:58;;;;;;;27.75;19.63;;;;;;;14.48;100.00;101809.00;5050041;28;20106;-72
2023/05/14 07:11:23;;;;;;;25.27;19.20;;;;;;;14.79;100.00;101823.19;5052257;28;20025;-72
2023/05/14 07:13:48;;;;;;;23.83;18.38;;;;;;;14.93;99.89;101797.44;5053310;28;20033;-72
2023/05/14 07:16:14;;;;;;;23.95;17.27;;;;;;;15.07;95.46;101803.16;5052480;28;20021;-71
2023/05/14 07:18:39;;;;;;;27.08;19.33;;;;;;;15.01;94.56;101808.59;5052277;28;20106;-71
2023/05/14 07:21:05;;;;;;;23.98;18.45;;;;;;;14.96;95.75;101811.34;5053257;28;20029;-71
2023/05/14 07:23:31;;;;;;;27.45;18.75;;;;;;;15.01;94.24;101803.34;5053849;28;20021;-71
2023/05/14 07:25:57;;;;;;;25.90;18.30;;;;;;;15.00;93.98;101806.88;5051093;28;20033;-72
2023/05/14 07:28:22;;;;;;;26.70;17.48;;;;;;;15.05;95.71;101809.38;5052056;28;20040;-72
2023/05/14 07:30:47;;;;;;;22.50;18.10;;;;;;;15.01;95.75;101807.72;5052430;28;20032;-72
2023/05/14 07:33:12;;;;;;;22.92;17.02;;;;;;;15.06;96.09;101811.97;5051459;28;20101;-71
2023/05/14 07:35:38;;;;;;;24.65;18.52;;;;;;;14.99;96.22;101819.13;5053562;28;20484;-72
2023/05/14 07:38:04;;;;;;;23.40;17.60;;;;;;;15.01;98.12;101812.97;5051671;28;20057;-72
2023/05/14 07:40:30;;;;;;;22.95;17.83;;;;;;;14.97;94.88;101827.94;5051795;28;20025;-71
2023/05/14 07:42:55;;;;;;;21.55;17.95;;;;;;;14.92;96.64;101825.47;5053556;28;20112;-72
2023/05/14 07:45:20;;;;;;;25.63;17.30;;;;;;;15.04;96.81;101820.78;5052735;28;20028;-72
2023/05/14 07:47:46;;;;;;;24.25;17.35;;;;;;;15.11;96.75;101823.22;5049566;28;20407;-71
2023/05/14 07:50:11;;;;;;;25.25;17.73;;;;;;;15.17;94.49;101823.06;5053011;28;20032;-72
2023/05/14 07:52:36;;;;;;;23.40;17.25;;;;;;;15.23;93.77;101814.13;5052553;28;20075;-72
2023/05/14 07:55:02;;;;;;;21.45;17.55;;;;;;;15.22;93.96;101791.41;5050442;28;20052;-71
2023/05/14 07:57:28;;;;;;;21.95;16.77;;;;;;;15.36;92.05;101807.63;5053371;28;20377;-72
2023/05/14 07:59:53;;;;;;;21.50;16.83;;;;;;;15.39;91.14;101796.16;5053257;28;20025;-72
2023/05/14 08:02:18;;;;;;;22.58;17.05;;;;;;;15.54;92.37;101795.75;5052880;28;20498;-71
2023/05/14 08:04:44;;;;;;;19.77;16.35;;;;;;;15.58;89.57;101801.78;5052611;28;20036;-72
2023/05/14 08:07:09;;;;;;;22.27;16.83;;;;;;;15.64;90.54;101789.31;5053386;28;20025;-72
2023/05/14 08:09:35;;;;;;;23.33;17.08;;;;;;;15.82;92.44;101787.06;5052344;28;20086;-71
2023/05/14 08:12:00;;;;;;;24.98;17.27;;;;;;;16.04;89.15;101803.91;5052327;28;20025;-72
2023/05/14 08:14:26;;;;;;;20.52;16.90;;;;;;;16.15;85.98;101806.19;5049616;28;20041;-72
2023/05/14 08:16:51;;;;;;;24.90;16.88;;;;;;;16.35;90.07;101797.69;5051083;28;20550;-73
2023/05/14 08:19:17;;;;;;;21.63;17.00;;;;;;;16.53;86.66;101801.47;5050519;28;20021;-74
2023/05/14 08:21:42;;;;;;;25.45;16.35;;;;;;;16.60;86.27;101795.09;5051597;28;20033;-75
2023/05/14 08:24:08;;;;;;;20.00;16.17;;;;;;;16.68;83.35;101789.59;5052321;28;20102;-76
2023/05/14 08:26:33;;;;;;;20.27;16.13;;;;;;;16.69;81.27;101804.47;5052654;28;20024;-76
2023/05/14 08:28:58;;;;;;;23.15;16.63;;;;;;;16.50;82.01;101802.44;5049016;28;20037;-76
2023/05/14 08:31:23;;;;;;;21.35;15.57;;;;;;;16.47;82.59;101781.47;5053227;28;20017;-75
2023/05/14 08:33:49;;;;;;;16.77;14.40;;;;;;;16.74;85.79;101797.25;5052420;28;20052;-76
2023/05/14 08:36:15;;;;;;;27.40;16.27;;;;;;;16.59;83.19;101788.97;5051948;28;20349;-74
2023/05/14 08:38:41;;;;;;;20.55;15.48;;;;;;;16.68;86.36;101794.84;5051975;28;20059;-76
2023/05/14 08:41:07;;;;;;;21.95;15.85;;;;;;;16.75;86.94;101791.13;5052666;28;20100;-75
2023/05/14 08:44:05;;;;;;;18.67;14.63;;;;;;;16.80;87.46;101795.31;5051965;28;20043;-75
2023/05/14 08:46:31;;;;;;;19.48;15.80;;;;;;;16.73;85.55;101787.66;5052922;28;20031;-75
2023/05/14 08:49:11;;;;;;;21.48;15.30;;;;;;;16.86;84.23;101783.72;5052136;28;20055;-75
2023/05/14 08:51:37;;;;;;;19.02;14.48;;;;;;;16.82;82.09;101779.47;5051711;28;20052;-76
2023/05/14 08:54:04;;;;;;;17.35;14.70;;;;;;;16.87;81.54;101780.16;5052335;28;20492;-76
2023/05/14 08:56:32;;;;;;;21.48;14.73;;;;;;;16.79;81.25;101776.94;5050372;28;20056;-76
2023/05/14 08:58:57;;;;;;;22.77;14.32;;;;;;;16.94;82.29;101780.78;5051267;28;20024;-75
2023/05/14 09:01:24;;;;;;;18.63;14.95;;;;;;;17.17;82.46;101766.84;5052629;28;20017;-75
2023/05/14 09:03:50;;;;;;;18.60;14.68;;;;;;;17.31;76.87;101764.53;5051290;28;20032;-75
2023/05/14 09:06:16;;;;;;;18.17;13.90;;;;;;;17.54;73.86;101768.97;5052095;28;20017;-75
2023/05/14 09:08:41;;;;;;;14.45;12.93;;;;;;;17.80;77.09;101756.59;5052261;28;20063;-76
2023/05/14 09:11:06;;;;;;;16.05;12.80;;;;;;;18.08;75.19;101758.97;5051584;28;20024;-76
2023/05/14 09:13:32;;;;;;;20.40;13.15;;;;;;;18.22;71.04;101760.16;5052393;28;20029;-76
2023/05/14 09:15:57;;;;;;;15.70;12.98;;;;;;;18.42;75.97;101767.22;5051950;28;20469;-76
2023/05/14 09:18:24;;;;;;;14.82;13.00;;;;;;;18.52;69.93;101753.66;5051510;28;20105;-76
2023/05/14 09:20:51;;;;;;;17.30;13.30;;;;;;;18.63;68.54;101754.91;5051835;28;20021;-76
2023/05/14 09:23:16;;;;;;;18.95;13.05;;;;;;;18.73;69.81;101750.13;5052409;28;20086;-76
2023/05/14 09:25:41;;;;;;;15.77;13.45;;;;;;;18.87;68.15;101747.75;5049990;28;20025;-76
2023/05/14 09:28:08;;;;;;;14.45;12.38;;;;;;;18.90;68.79;101742.34;5051844;28;20058;-76
2023/05/14 09:30:35;;;;;;;18.60;13.70;;;;;;;18.90;68.07;101750.25;5052249;28;20105;-76
2023/05/14 09:33:02;;;;;;;18.02;13.27;;;;;;;18.97;68.97;101742.06;5051192;28;20488;-76
2023/05/14 09:35:28;;;;;;;16.15;12.55;;;;;;;19.04;70.26;101746.16;5052157;28;20041;-75
2023/05/14 09:37:54;;;;;;;15.77;12.60;;;;;;;18.98;69.21;101738.50;5051743;28;20370;-76
2023/05/14 09:40:21;;;;;;;14.50;12.82;;;;;;;19.08;70.25;101734.50;5050436;28;20025;-76
2023/05/14 09:42:49;;;;;;;16.90;12.18;;;;;;;19.12;69.28;101736.94;5051830;28;20029;-76
2023/05/14 09:45:16;;;;;;;16.63;12.45;;;;;;;19.30;71.42;101737.03;5052037;28;20108;-76
2023/05/14 09:47:41;;;;;;;14.32;11.15;;;;;;;19.40;68.75;101731.25;5044175;28;20118;-74
2023/05/14 09:50:07;;;;;;;17.33;12.07;;;;;;;19.47;65.21;101741.56;5048541;28;20484;-74
2023/05/14 09:52:34;;;;;;;13.73;10.95;;;;;;;19.54;72.53;101724.47;5047967;28;20025;-74
2023/05/14 09:55:02;;;;;;;17.35;11.70;;;;;;;19.70;71.50;101733.41;5050891;28;20120;-75
2023/05/14 09:57:28;;;;;;;19.10;12.02;;;;;;;19.80;70.83;101733.84;5051754;28;20495;-77
2023/05/14 09:59:56;;;;;;;19.65;13.05;;;;;;;19.90;69.31;101732.47;5048250;28;20037;-75
2023/05/14 10:02:24;;;;;;;15.80;12.05;;;;;;;19.94;64.59;101727.88;5051698;28;20108;-75
2023/05/14 10:04:51;;;;;;;14.30;12.18;;;;;;;19.99;66.09;101729.38;5051102;28;20027;-75
2023/05/14 10:07:22;;;;;;;12.63;9.75;;;;;;;20.05;64.99;101720.28;5051248;28;20029;-75
2023/05/14 10:09:47;;;;;;;15.00;9.52;;;;;;;20.22;61.27;101730.03;5049374;28;20028;-74
2023/05/14 10:12:19;;;;;;;15.93;11.25;;;;;;;20.14;60.40;101716.31;5055381;28;20032;-74
2023/05/14 10:14:52;;;;;;;13.07;10.05;;;;;;;20.29;59.47;101716.41;5052996;28;20036;-74
2023/05/14 10:17:20;;;;;;;11.63;8.80;;;;;;;20.34;58.42;101718.84;5054454;28;20021;-71
2023/05/14 10:19:53;;;;;;;11.93;9.35;;;;;;;20.47;56.74;101713.75;5049642;28;20424;-72
2023/05/14 10:22:22;;;;;;;11.77;9.30;;;;;;;20.47;57.44;101725.22;5040895;28;20056;-72
2023/05/14 10:24:51;;;;;;;12.93;8.52;;;;;;;20.62;58.11;101723.59;5054761;28;20048;-72
2023/05/14 10:27:20;;;;;;;12.73;10.25;;;;;;;20.69;55.82;101703.78;5055274;28;20029;-72
2023/05/14 10:29:53;;;;;;;12.50;9.27;;;;;;;20.80;59.11;101712.03;5054193;28;20071;-72
2023/05/14 10:32:21;;;;;;;12.68;9.82;;;;;;;20.88;58.19;101713.44;5054895;28;20053;-72
2023/05/14 10:34:47;;;;;;;12.85;9.68;;;;;;;20.80;59.12;101706.75;5054908;28;20036;-72
2023/05/14 10:37:18;;;;;;;15.80;9.55;;;;;;;20.87;59.16;101709.06;5054067;28;20033;-72
2023/05/14 10:39:52;;;;;;;13.50;9.20;;;;;;;20.97;61.60;101697.03;5054788;28;20024;-72
2023/05/14 10:42:21;;;;;;;10.50;9.07;;;;;;;21.09;61.55;101707.00;5053602;28;20021;-72
2023/05/14 10:45:00;;;;;;;13.50;8.07;;;;;;;21.04;50.97;101703.72;5054846;28;20025;-72
2023/05/14 10:47:27;;;;;;;10.05;7.15;;;;;;;20.90;51.94;101711.56;5054593;28;20488;-72
2023/05/14 10:49:57;;;;;;;10.80;7.28;;;;;;;20.99;51.78;101695.16;5053782;28;20029;-72
2023/05/14 10:52:23;;;;;;;12.77;7.20;;;;;;;21.15;53.51;101703.97;5054445;28;20104;-72
2023/05/14 10:54:50;;;;;;;11.23;7.97;;;;;;;21.34;52.30;101695.03;5054640;28;20048;-72
2023/05/14 10:57:17;;;;;;;12.32;8.48;;;;;;;21.45;54.26;101703.28;5054004;28;20037;-71
2023/05/14 10:59:42;;;;;;;10.98;8.43;;;;;;;21.48;50.94;101692.50;5054430;28;20071;-72
2023/05/14 11:02:32;;;;;;;9.85;8.18;;;;;;;21.69;52.82;101690.44;5054765;28;20025;-72